createdAt,value
2023-05-14T00:01:03.025Z,93850.25
2023-05-14T00:03:29.889Z,93845.91
2023-05-14T00:05:56.726Z,93844.03
2023-05-14T00:08:23.349Z,93845.72
2023-05-14T00:10:50.087Z,93842.63
2023-05-14T00:13:16.760Z,93847.13
2023-05-14T00:15:43.684Z,93847.59
2023-05-14T00:18:12.361Z,93852.00
2023-05-14T00:20:39.291Z,93845.69
2023-05-14T00:23:05.991Z,93842.19
2023-05-14T00:25:32.749Z,93841.78
2023-05-14T00:27:59.519Z,93841.38
2023-05-14T00:30:26.282Z,93827.31
2023-05-14T00:32:53.052Z,93830.44
2023-05-14T00:35:21.387Z,93830.84
2023-05-14T00:37:48.190Z,93829.25
2023-05-14T00:40:15.037Z,93830.03
2023-05-14T00:42:41.709Z,93827.28
2023-05-14T00:45:08.847Z,93832.72
2023-05-14T00:47:36.490Z,93833.47
2023-05-14T00:50:04.623Z,93831.13
2023-05-14T00:52:32.160Z,93830.91
2023-05-14T00:54:59.384Z,93838.69
2023-05-14T00:57:26.594Z,93837.50
2023-05-14T00:59:53.971Z,93840.16
2023-05-14T01:02:20.749Z,93833.84
2023-05-14T01:04:47.479Z,93825.59
2023-05-14T01:07:29.065Z,93824.81
2023-05-14T01:10:33.314Z,93814.59
2023-05-14T01:13:31.593Z,93800.16
2023-05-14T01:15:59.417Z,93814.91
2023-05-14T01:18:28.537Z,93809.00
2023-05-14T01:20:55.349Z,93805.84
2023-05-14T01:23:21.945Z,93802.66
2023-05-14T01:25:48.694Z,93797.19
2023-05-14T01:28:20.879Z,93805.81
2023-05-14T01:30:57.892Z,93797.28
2023-05-14T01:33:27.408Z,93800.69
2023-05-14T01:35:55.279Z,93802.25
2023-05-14T01:38:23.486Z,93796.44
2023-05-14T01:40:50.853Z,93798.34
2023-05-14T01:43:17.903Z,93802.59
2023-05-14T01:45:44.780Z,93801.75
2023-05-14T01:48:11.837Z,93791.72
2023-05-14T01:50:38.586Z,93796.47
2023-05-14T01:53:05.543Z,93796.94
2023-05-14T01:55:32.216Z,93794.19
2023-05-14T01:57:59.084Z,93796.41
2023-05-14T02:00:26.204Z,93796.72
2023-05-14T02:02:53.134Z,93801.75
2023-05-14T02:05:19.955Z,93797.06
2023-05-14T02:07:46.577Z,93790.44
2023-05-14T02:10:13.338Z,93787.34
2023-05-14T02:12:40.027Z,93801.78
2023-05-14T02:15:08.896Z,93806.03
2023-05-14T02:17:35.605Z,93803.44
2023-05-14T02:20:02.339Z,93795.19
2023-05-14T02:22:29.018Z,93797.44
2023-05-14T02:24:56.112Z,93791.94
2023-05-14T02:27:22.798Z,93797.16
2023-05-14T02:29:49.536Z,93795.28
2023-05-14T02:32:16.248Z,93793.78
2023-05-14T02:34:42.903Z,93798.41
2023-05-14T02:37:09.537Z,93795.53
2023-05-14T02:39:36.240Z,93791.56
2023-05-14T02:42:02.938Z,93783.34
2023-05-14T02:44:31.818Z,93788.44
2023-05-14T02:46:58.694Z,93791.56
2023-05-14T02:49:25.470Z,93797.00
2023-05-14T02:51:54.183Z,93786.41
2023-05-14T02:54:20.836Z,93777.00
2023-05-14T02:56:47.578Z,93772.66
2023-05-14T02:59:14.405Z,93777.28
2023-05-14T03:01:41.794Z,93782.75
2023-05-14T03:04:08.850Z,93779.25
2023-05-14T03:06:35.575Z,93777.25
2023-05-14T03:09:02.246Z,93775.28
2023-05-14T03:11:28.913Z,93774.16
2023-05-14T03:13:55.580Z,93778.94
2023-05-14T03:16:22.706Z,93780.47
2023-05-14T03:18:49.473Z,93784.31
2023-05-14T03:21:16.254Z,93782.00
2023-05-14T03:23:42.884Z,93780.34
2023-05-14T03:26:09.556Z,93783.44
2023-05-14T03:28:36.153Z,93779.59
2023-05-14T03:31:02.847Z,93778.38
2023-05-14T03:33:29.680Z,93776.78
2023-05-14T03:35:56.351Z,93773.25
2023-05-14T03:38:23.089Z,93773.28
2023-05-14T03:40:49.780Z,93772.84
2023-05-14T03:43:16.407Z,93774.75
2023-05-14T03:45:43.105Z,93775.50
2023-05-14T03:48:10.010Z,93774.38
2023-05-14T03:50:36.760Z,93771.56
2023-05-14T03:53:03.404Z,93778.94
2023-05-14T03:55:30.089Z,93771.13
2023-05-14T03:57:56.758Z,93770.66
2023-05-14T04:00:23.629Z,93765.22
2023-05-14T04:02:50.706Z,93772.34
2023-05-14T04:05:17.502Z,93767.41
2023-05-14T04:07:45.814Z,93771.94
2023-05-14T04:10:13.616Z,93766.47
2023-05-14T04:12:40.292Z,93777.38
2023-05-14T04:15:08.100Z,93790.31
2023-05-14T04:17:35.179Z,93788.72
2023-05-14T04:20:02.085Z,93783.97
2023-05-14T04:22:28.709Z,93786.25
2023-05-14T04:24:55.403Z,93773.25
2023-05-14T04:27:22.286Z,93772.56
2023-05-14T04:29:51.685Z,93786.25
2023-05-14T04:32:18.384Z,93771.75
2023-05-14T04:34:45.071Z,93767.03
2023-05-14T04:37:11.678Z,93774.78
2023-05-14T04:39:38.493Z,93777.09
2023-05-14T04:42:06.641Z,93777.50
2023-05-14T04:44:34.879Z,93772.53
2023-05-14T04:47:02.730Z,93773.03
2023-05-14T04:49:30.969Z,93769.63
2023-05-14T04:51:57.637Z,93779.03
2023-05-14T04:54:24.377Z,93774.38
2023-05-14T04:56:51.217Z,93785.88
2023-05-14T04:59:18.074Z,93783.63
2023-05-14T05:01:45.917Z,93778.09
2023-05-14T05:04:13.086Z,93779.34
2023-05-14T05:06:39.903Z,93786.38
2023-05-14T05:09:06.547Z,93783.53
2023-05-14T05:11:33.185Z,93781.66
2023-05-14T05:13:59.782Z,93774.94
2023-05-14T05:16:26.442Z,93783.28
2023-05-14T05:18:53.237Z,93777.22
2023-05-14T05:21:20.096Z,93772.63
2023-05-14T05:23:46.861Z,93767.19
2023-05-14T05:26:13.551Z,93773.00
2023-05-14T05:28:40.262Z,93773.75
2023-05-14T05:31:07.137Z,93768.78
2023-05-14T05:33:34.945Z,93763.91
2023-05-14T05:36:01.645Z,93757.03
2023-05-14T05:38:28.257Z,93757.59
2023-05-14T05:40:54.915Z,93747.75
2023-05-14T05:43:21.571Z,93752.28
2023-05-14T05:45:48.237Z,93755.88
2023-05-14T05:48:14.870Z,93757.78
2023-05-14T05:50:41.503Z,93762.78
2023-05-14T05:53:08.122Z,93764.19
2023-05-14T05:55:34.816Z,93762.78
2023-05-14T05:58:01.479Z,93759.06
2023-05-14T06:00:28.235Z,93757.66
2023-05-14T06:02:56.183Z,93763.25
2023-05-14T06:05:23.798Z,93768.00
2023-05-14T06:07:50.514Z,93770.28
2023-05-14T06:10:17.218Z,93775.41
2023-05-14T06:12:43.924Z,93758.56
2023-05-14T06:15:12.142Z,93761.81
2023-05-14T06:17:39.052Z,93759.66
2023-05-14T06:20:07.978Z,93755.41
2023-05-14T06:22:34.870Z,93758.59
2023-05-14T06:25:01.617Z,93761.66
2023-05-14T06:27:28.298Z,93759.84
2023-05-14T06:29:55.097Z,93756.28
2023-05-14T06:32:22.014Z,93758.13
2023-05-14T06:34:48.810Z,93754.16
2023-05-14T06:37:15.417Z,93759.13
2023-05-14T06:39:48.157Z,93746.13
2023-05-14T06:42:14.834Z,93747.13
2023-05-14T06:44:41.951Z,93741.94
2023-05-14T06:47:08.641Z,93746.38
2023-05-14T06:49:35.696Z,93735.88
2023-05-14T06:52:02.893Z,93732.22
2023-05-14T06:54:30.128Z,93735.69
2023-05-14T06:56:57.520Z,93732.19
2023-05-14T06:59:24.160Z,93731.94
2023-05-14T07:01:50.839Z,93731.94
2023-05-14T07:04:17.585Z,93732.50
2023-05-14T07:06:44.309Z,93731.41
2023-05-14T07:09:11.183Z,93738.66
2023-05-14T07:11:37.769Z,93731.34
2023-05-14T07:14:04.502Z,93724.03
2023-05-14T07:16:31.277Z,93730.25
2023-05-14T07:18:57.994Z,93725.81
2023-05-14T07:21:24.692Z,93726.44
2023-05-14T07:23:51.355Z,93729.22
2023-05-14T07:26:18.005Z,93729.63
2023-05-14T07:28:44.724Z,93723.53
2023-05-14T07:31:11.399Z,93724.78
2023-05-14T07:33:38.572Z,93717.28
2023-05-14T07:36:05.645Z,93719.66
2023-05-14T07:38:32.730Z,93720.50
2023-05-14T07:40:59.438Z,93718.69
2023-05-14T07:43:26.241Z,93723.56
2023-05-14T07:45:53.054Z,93718.56
2023-05-14T07:48:19.770Z,93716.00
2023-05-14T07:50:46.540Z,93699.25
2023-05-14T07:53:13.780Z,93709.38
2023-05-14T07:55:41.689Z,93710.16
2023-05-14T07:58:09.405Z,93710.34
2023-05-14T08:00:36.122Z,93709.00
2023-05-14T08:03:02.901Z,93712.44
2023-05-14T08:05:29.755Z,93715.00
2023-05-14T08:07:56.540Z,93700.88
2023-05-14T08:10:23.505Z,93704.16
2023-05-14T08:12:50.527Z,93709.19
2023-05-14T08:15:17.522Z,93702.50
2023-05-14T08:17:44.199Z,93709.06
2023-05-14T08:20:12.052Z,93712.59
2023-05-14T08:22:38.852Z,93713.09
2023-05-14T08:25:06.489Z,93711.81
2023-05-14T08:27:33.342Z,93713.97
2023-05-14T08:30:00.037Z,93722.00
2023-05-14T08:32:27.139Z,93711.81
2023-05-14T08:34:53.950Z,93718.75
2023-05-14T08:37:20.672Z,93701.13
2023-05-14T08:39:47.337Z,93704.47
2023-05-14T08:42:19.187Z,93707.59
2023-05-14T08:44:52.197Z,93707.94
2023-05-14T08:47:21.995Z,93700.84
2023-05-14T08:49:54.847Z,93704.81
2023-05-14T08:52:22.950Z,93707.31
2023-05-14T08:54:53.718Z,93704.53
2023-05-14T08:57:21.392Z,93699.16
2023-05-14T08:59:48.446Z,93698.06
2023-05-14T09:02:17.404Z,93695.97
2023-05-14T09:04:44.852Z,93700.66
2023-05-14T09:07:11.804Z,93701.34
2023-05-14T09:09:38.627Z,93703.56
2023-05-14T09:12:06.321Z,93708.97
2023-05-14T09:14:33.389Z,93702.19
2023-05-14T09:17:00.108Z,93704.13
2023-05-14T09:19:27.116Z,93704.94
2023-05-14T09:21:57.793Z,93696.94
2023-05-14T09:24:26.582Z,93700.38
2023-05-14T09:26:54.666Z,93711.34
2023-05-14T09:29:21.401Z,93700.03
2023-05-14T09:31:51.584Z,93701.31
2023-05-14T09:34:25.884Z,93699.34
2023-05-14T09:37:00.408Z,93702.38
2023-05-14T09:39:27.606Z,93697.94
2023-05-14T09:41:54.906Z,93700.53
2023-05-14T09:44:22.653Z,93707.88
2023-05-14T09:46:50.001Z,93713.75
2023-05-14T09:49:17.299Z,93715.53
2023-05-14T09:51:44.075Z,93713.19
2023-05-14T09:54:10.951Z,93717.25
2023-05-14T09:56:39.465Z,93710.38
2023-05-14T09:59:06.258Z,93711.28
2023-05-14T10:01:33.299Z,93705.91
2023-05-14T10:04:04.067Z,93707.97
2023-05-14T10:06:36.302Z,93697.94
2023-05-14T10:09:05.821Z,93698.88
2023-05-14T10:11:38.233Z,93703.88
2023-05-14T10:14:18.012Z,93707.41
2023-05-14T10:16:50.978Z,93703.66
2023-05-14T10:19:20.740Z,93709.06
2023-05-14T10:21:56.564Z,93704.44
2023-05-14T10:24:24.915Z,93705.16
2023-05-14T10:26:51.814Z,93706.09
2023-05-14T10:29:18.561Z,93707.91
2023-05-14T10:31:54.120Z,93706.78
2023-05-14T10:34:46.112Z,93705.47
2023-05-14T10:37:30.843Z,93699.75
2023-05-14T10:39:57.500Z,93709.22
2023-05-14T10:42:27.203Z,93701.09
2023-05-14T10:44:58.945Z,93700.72
2023-05-14T10:47:26.913Z,93689.78
2023-05-14T10:49:55.905Z,93690.53
2023-05-14T10:52:23.648Z,93685.25
2023-05-14T10:55:00.656Z,93677.38
2023-05-14T10:57:30.876Z,93671.56
2023-05-14T10:59:59.444Z,93668.59
2023-05-14T11:02:27.326Z,93668.34
2023-05-14T11:05:05.313Z,93666.22
2023-05-14T11:07:39.294Z,93665.25
2023-05-14T11:10:07.206Z,93658.34
2023-05-14T11:12:35.433Z,93653.44
2023-05-14T11:15:04.590Z,93641.03
2023-05-14T11:17:32.100Z,93638.88
2023-05-14T11:20:00.098Z,93636.50
2023-05-14T11:22:26.896Z,93636.63
2023-05-14T11:24:53.609Z,93626.34
2023-05-14T11:27:22.363Z,93623.56
2023-05-14T11:29:49.738Z,93631.94
2023-05-14T11:32:17.377Z,93632.25
2023-05-14T11:34:44.896Z,93630.06
2023-05-14T11:37:15.462Z,93622.94
2023-05-14T11:40:01.762Z,93622.13
2023-05-14T11:42:28.508Z,93619.56
2023-05-14T11:44:55.213Z,93616.75
2023-05-14T11:47:22.416Z,93610.31
2023-05-14T11:49:49.758Z,93618.41
2023-05-14T11:52:19.552Z,93607.03
2023-05-14T11:54:49.651Z,93607.06
2023-05-14T11:57:19.864Z,93618.09
2023-05-14T11:59:48.150Z,93605.47
2023-05-14T12:02:19.189Z,93606.41
2023-05-14T12:04:52.019Z,93598.81
2023-05-14T12:07:19.180Z,93595.84
2023-05-14T12:09:50.881Z,93601.22
2023-05-14T12:12:20.184Z,93593.34
2023-05-14T12:14:47.504Z,93594.63
2023-05-14T12:17:18.902Z,93586.78
2023-05-14T12:19:47.761Z,93591.25
2023-05-14T12:22:17.418Z,93579.88
2023-05-14T12:24:53.175Z,93577.56
2023-05-14T12:27:23.531Z,93575.91
2023-05-14T12:32:26.467Z,93578.03
2023-05-14T12:34:53.252Z,93576.28
2023-05-14T12:37:19.890Z,93571.72
2023-05-14T12:39:46.540Z,93567.75
2023-05-14T12:42:15.386Z,93565.63
2023-05-14T12:44:42.221Z,93557.59
2023-05-14T12:47:08.968Z,93565.81
2023-05-14T12:49:36.147Z,93559.66
2023-05-14T12:52:19.495Z,93561.53
2023-05-14T12:54:49.167Z,93557.50
2023-05-14T12:57:15.784Z,93557.91
2023-05-14T12:59:42.413Z,93546.19
2023-05-14T13:02:09.111Z,93547.59
2023-05-14T13:04:36.042Z,93545.06
2023-05-14T13:07:03.383Z,93538.66
2023-05-14T13:09:30.059Z,93533.97
2023-05-14T13:11:56.712Z,93527.22
2023-05-14T13:14:23.348Z,93537.09
2023-05-14T13:16:50.116Z,93537.69
2023-05-14T13:19:16.909Z,93539.31
2023-05-14T13:21:43.677Z,93533.31
2023-05-14T13:24:10.385Z,93535.38
2023-05-14T13:26:37.756Z,93534.97
2023-05-14T13:29:04.714Z,93519.59
2023-05-14T13:31:31.415Z,93533.59
2023-05-14T13:33:59.408Z,93534.97
2023-05-14T13:36:26.149Z,93535.38
2023-05-14T13:38:52.834Z,93530.69
2023-05-14T13:41:19.501Z,93522.19
2023-05-14T13:43:56.901Z,93522.66
2023-05-14T13:46:23.581Z,93511.47
2023-05-14T13:48:50.238Z,93513.13
2023-05-14T13:51:16.988Z,93516.66
2023-05-14T13:53:44.605Z,93510.22
2023-05-14T13:56:11.382Z,93514.75
2023-05-14T13:58:38.061Z,93506.97
2023-05-14T14:01:05.055Z,93505.22
2023-05-14T14:03:31.728Z,93498.16
2023-05-14T14:05:58.477Z,93501.78
2023-05-14T14:08:25.191Z,93497.81
2023-05-14T14:10:53.023Z,93498.44
2023-05-14T14:13:21.192Z,93497.59
2023-05-14T14:15:47.887Z,93493.41
2023-05-14T14:18:14.540Z,93494.03
2023-05-14T14:20:41.420Z,93491.81
2023-05-14T14:23:08.072Z,93490.72
2023-05-14T14:25:34.687Z,93487.59
2023-05-14T14:28:01.365Z,93492.75
2023-05-14T14:30:28.085Z,93495.59
2023-05-14T14:32:55.037Z,93493.59
2023-05-14T14:35:21.991Z,93494.06
2023-05-14T14:37:50.729Z,93501.72
2023-05-14T14:40:17.758Z,93486.09
2023-05-14T14:42:44.686Z,93493.09
2023-05-14T14:45:12.421Z,93485.81
2023-05-14T14:47:44.573Z,93484.19
2023-05-14T14:50:14.421Z,93480.25
2023-05-14T14:52:45.608Z,93481.34
2023-05-14T14:55:12.829Z,93481.25
2023-05-14T14:57:39.765Z,93487.09
2023-05-14T15:00:09.347Z,93479.41
2023-05-14T15:02:38.424Z,93492.50
2023-05-14T15:05:06.059Z,93488.31
2023-05-14T15:07:32.994Z,93496.03
2023-05-14T15:09:59.872Z,93497.91
2023-05-14T15:12:26.535Z,93517.97
2023-05-14T15:14:53.168Z,93527.91
2023-05-14T15:17:19.809Z,93525.00
2023-05-14T15:19:46.601Z,93525.78
2023-05-14T15:22:13.454Z,93530.97
2023-05-14T15:24:40.121Z,93538.31
2023-05-14T15:27:06.990Z,93536.63
2023-05-14T15:29:33.613Z,93545.75
2023-05-14T15:32:00.459Z,93552.31
2023-05-14T15:34:27.234Z,93545.41
2023-05-14T15:36:53.910Z,93562.19
2023-05-14T15:39:20.522Z,93554.13
2023-05-14T15:41:47.217Z,93556.09
2023-05-14T15:44:13.897Z,93561.47
2023-05-14T15:46:40.773Z,93561.28
2023-05-14T15:49:07.482Z,93567.84
2023-05-14T15:51:34.721Z,93556.44
2023-05-14T15:54:01.469Z,93563.22
2023-05-14T15:56:28.112Z,93564.34
2023-05-14T15:58:54.780Z,93564.06
2023-05-14T16:01:21.528Z,93572.00
2023-05-14T16:03:48.325Z,93569.34
2023-05-14T16:06:15.067Z,93580.03
2023-05-14T16:08:41.739Z,93571.28
2023-05-14T16:11:08.740Z,93580.06
2023-05-14T16:13:37.697Z,93572.13
2023-05-14T16:16:04.627Z,93576.13
2023-05-14T16:18:31.366Z,93578.97
2023-05-14T16:20:58.203Z,93579.50
2023-05-14T16:23:24.920Z,93577.84
2023-05-14T16:25:51.589Z,93573.38
2023-05-14T16:28:18.282Z,93564.81
2023-05-14T16:30:44.912Z,93570.97
2023-05-14T16:33:11.889Z,93568.03
2023-05-14T16:35:39.446Z,93572.50
2023-05-14T16:38:06.272Z,93568.53
2023-05-14T16:40:32.901Z,93574.97
2023-05-14T16:42:59.681Z,93576.72
2023-05-14T16:45:26.571Z,93585.75
2023-05-14T16:47:53.377Z,93579.22
2023-05-14T16:50:20.417Z,93575.78
2023-05-14T16:52:47.099Z,93578.19
2023-05-14T16:55:13.741Z,93582.56
2023-05-14T16:57:40.730Z,93576.19
2023-05-14T17:00:09.495Z,93575.81
2023-05-14T17:02:36.351Z,93577.03
2023-05-14T17:05:04.047Z,93592.44
2023-05-14T17:07:31.446Z,93586.50
2023-05-14T17:09:59.898Z,93584.66
2023-05-14T17:12:26.961Z,93586.31
2023-05-14T17:14:53.610Z,93591.72
2023-05-14T17:17:20.500Z,93587.44
2023-05-14T17:19:47.172Z,93586.41
2023-05-14T17:22:14.203Z,93588.63
2023-05-14T17:24:40.942Z,93594.25
2023-05-14T17:27:07.831Z,93589.34
2023-05-14T17:29:34.568Z,93598.72
2023-05-14T17:32:03.406Z,93590.16
2023-05-14T17:34:30.504Z,93599.50
2023-05-14T17:36:57.387Z,93599.75
2023-05-14T17:39:24.028Z,93594.31
2023-05-14T17:41:50.680Z,93594.38
2023-05-14T17:44:17.473Z,93601.88
2023-05-14T17:46:45.158Z,93600.25
2023-05-14T17:49:12.001Z,93601.59
2023-05-14T17:51:38.745Z,93594.56
2023-05-14T17:54:05.559Z,93607.78
2023-05-14T17:56:32.444Z,93605.63
2023-05-14T17:58:59.176Z,93602.16
2023-05-14T18:01:26.098Z,93608.31
2023-05-14T18:03:53.003Z,93596.22
2023-05-14T18:06:19.761Z,93603.06
2023-05-14T18:08:46.471Z,93594.97
2023-05-14T18:11:13.205Z,93606.97
2023-05-14T18:13:39.872Z,93606.78
2023-05-14T18:16:06.613Z,93606.59
2023-05-14T18:18:33.397Z,93613.06
2023-05-14T18:21:00.142Z,93610.31
2023-05-14T18:23:26.988Z,93622.56
2023-05-14T18:25:53.935Z,93618.38
2023-05-14T18:28:21.447Z,93622.81
2023-05-14T18:30:49.238Z,93623.06
2023-05-14T18:33:16.094Z,93624.03
2023-05-14T18:35:43.735Z,93628.34
2023-05-14T18:38:11.835Z,93635.31
2023-05-14T18:40:38.565Z,93631.69
2023-05-14T18:43:05.425Z,93629.88
2023-05-14T18:45:32.167Z,93631.25
2023-05-14T18:47:58.946Z,93633.16
2023-05-14T18:50:25.708Z,93638.56
2023-05-14T18:52:52.373Z,93633.44
2023-05-14T18:55:18.997Z,93639.63
2023-05-14T18:57:46.078Z,93641.16
2023-05-14T19:00:13.287Z,93644.75
2023-05-14T19:02:40.073Z,93647.66
2023-05-14T19:05:07.726Z,93640.28
2023-05-14T19:07:34.433Z,93646.47
2023-05-14T19:10:01.081Z,93644.81
2023-05-14T19:12:27.739Z,93654.53
2023-05-14T19:14:54.353Z,93647.50
2023-05-14T19:17:21.303Z,93641.03
2023-05-14T19:19:48.104Z,93641.59
2023-05-14T19:22:14.815Z,93644.78
2023-05-14T19:24:41.510Z,93638.47
2023-05-14T19:27:08.652Z,93648.34
2023-05-14T19:29:36.902Z,93641.47
2023-05-14T19:32:04.700Z,93641.06
2023-05-14T19:34:31.635Z,93643.63
2023-05-14T19:36:58.391Z,93648.13
2023-05-14T19:39:25.048Z,93641.88
2023-05-14T19:41:51.675Z,93644.50
2023-05-14T19:44:18.415Z,93648.00
2023-05-14T19:46:45.339Z,93649.34
2023-05-14T19:49:12.169Z,93650.41
2023-05-14T19:51:39.485Z,93651.88
2023-05-14T19:54:06.807Z,93646.75
2023-05-14T19:56:33.610Z,93645.50
2023-05-14T19:59:00.233Z,93647.09
2023-05-14T20:01:27.530Z,93649.41
2023-05-14T20:03:54.226Z,93640.91
2023-05-14T20:06:20.881Z,93647.59
2023-05-14T20:08:47.642Z,93639.72
2023-05-14T20:11:15.690Z,93644.63
2023-05-14T20:13:42.431Z,93645.25
2023-05-14T20:16:09.187Z,93651.44
2023-05-14T20:18:36.345Z,93647.94
2023-05-14T20:21:03.853Z,93649.91
2023-05-14T20:23:30.688Z,93645.97
2023-05-14T20:25:57.398Z,93654.88
2023-05-14T20:28:24.056Z,93649.75
2023-05-14T20:30:50.845Z,93652.84
2023-05-14T20:33:17.540Z,93645.09
2023-05-14T20:35:44.400Z,93649.34
2023-05-14T20:38:12.832Z,93637.38
2023-05-14T20:40:40.348Z,93635.84
2023-05-14T20:43:07.064Z,93639.91
2023-05-14T20:45:33.752Z,93638.53
2023-05-14T20:48:00.517Z,93628.81
2023-05-14T20:50:28.001Z,93635.53
2023-05-14T20:52:55.280Z,93626.78
2023-05-14T20:55:22.283Z,93624.81
2023-05-14T20:57:49.717Z,93641.66
2023-05-14T21:00:16.799Z,93631.47
2023-05-14T21:02:43.573Z,93638.59
2023-05-14T21:05:10.628Z,93631.91
2023-05-14T21:07:37.490Z,93649.47
2023-05-14T21:10:04.501Z,93641.25
2023-05-14T21:12:31.155Z,93640.88
2023-05-14T21:14:58.986Z,93641.72
2023-05-14T21:17:25.751Z,93633.34
2023-05-14T21:19:52.431Z,93637.00
2023-05-14T21:22:19.067Z,93633.97
2023-05-14T21:24:45.707Z,93635.94
2023-05-14T21:27:12.404Z,93626.59
2023-05-14T21:29:39.687Z,93628.31
2023-05-14T21:32:07.063Z,93624.47
2023-05-14T21:34:33.816Z,93629.94
2023-05-14T21:37:00.779Z,93623.69
2023-05-14T21:39:27.446Z,93630.03
2023-05-14T21:41:54.099Z,93624.41
2023-05-14T21:44:22.046Z,93626.75
2023-05-14T21:46:49.304Z,93634.47
2023-05-14T21:49:15.945Z,93632.47
2023-05-14T21:51:42.948Z,93635.63
2023-05-14T21:54:09.786Z,93634.09
2023-05-14T21:56:37.203Z,93633.69
2023-05-14T21:59:03.925Z,93630.88
2023-05-14T22:01:32.495Z,93639.09
2023-05-14T22:03:59.406Z,93639.03
2023-05-14T22:06:26.207Z,93638.16
2023-05-14T22:08:52.970Z,93635.03
2023-05-14T22:11:19.948Z,93635.81
2023-05-14T22:13:46.630Z,93630.22
2023-05-14T22:16:14.238Z,93627.44
2023-05-14T22:18:41.579Z,93625.84
2023-05-14T22:21:08.298Z,93632.78
2023-05-14T22:23:34.974Z,93627.59
2023-05-14T22:26:01.730Z,93621.28
2023-05-14T22:28:28.379Z,93621.19
2023-05-14T22:30:56.402Z,93621.16
2023-05-14T22:33:23.191Z,93622.34
2023-05-14T22:35:49.862Z,93610.00
2023-05-14T22:38:16.578Z,93620.22
2023-05-14T22:40:43.249Z,93612.47
2023-05-14T22:43:09.947Z,93612.59
2023-05-14T22:45:36.631Z,93607.47
2023-05-14T22:48:03.346Z,93609.09
2023-05-14T22:50:29.990Z,93608.03
2023-05-14T22:52:56.697Z,93610.44
2023-05-14T22:55:23.805Z,93604.28
2023-05-14T22:57:50.910Z,93607.53
2023-05-14T23:00:17.943Z,93606.50
2023-05-14T23:02:44.602Z,93604.25
2023-05-14T23:05:11.378Z,93598.44
2023-05-14T23:07:38.184Z,93600.38
2023-05-14T23:10:05.528Z,93601.16
2023-05-14T23:12:32.150Z,93605.09
2023-05-14T23:14:59.274Z,93604.72
2023-05-14T23:17:26.132Z,93602.84
2023-05-14T23:19:53.043Z,93610.69
2023-05-14T23:22:20.320Z,93614.19
2023-05-14T23:24:46.968Z,93613.03
2023-05-14T23:27:13.614Z,93606.00
2023-05-14T23:29:40.305Z,93602.56
2023-05-14T23:32:07.326Z,93599.84
2023-05-14T23:34:34.713Z,93594.78
2023-05-14T23:37:01.486Z,93595.19
2023-05-14T23:39:28.209Z,93596.03
2023-05-14T23:41:54.842Z,93586.28
2023-05-14T23:44:21.604Z,93588.66
2023-05-14T23:46:48.442Z,93581.66
2023-05-14T23:49:15.272Z,93592.22
2023-05-14T23:51:42.088Z,93588.00
2023-05-14T23:54:08.751Z,93590.75
2023-05-14T23:56:35.930Z,93583.72
2023-05-14T23:59:03.651Z,93584.13
